Time;durP1;ratioP1;P1;durP2;ratioP2;P2;SDS_P1;SDS_P2;PMS_P1;PMS_P2;Temp;Humidity;BMP_temperature;BMP_pressure;BME280_temperature;BME280_humidity;BME280_pressure;Samples;Min_cycle;Max_cycle;Signal;HPM_P1;HPM_P2
2021/12/24 00:00:35;;;;;;;118.23;43.33;;;;;;;;;;4214095;28;20240;-70
2021/12/24 00:03:02;;;;;;;122.47;44.87;;;;;;;;;;4214873;28;20244;-72
2021/12/24 00:05:30;;;;;;;117.20;44.13;;;;;;;;;;4197123;28;20302;-72
2021/12/24 00:07:56;;;;;;;123.57;47.03;;;;;;;;;;4200644;28;20295;-74
2021/12/24 00:10:23;;;;;;;131.87;47.10;;;;;;;;;;4193760;28;22144;-70
2021/12/24 00:12:58;;;;;;;131.73;47.90;;;;;;;;;;4196480;28;20291;-70
2021/12/24 00:15:52;;;;;;;128.57;45.97;;;;;;;;;;4200541;28;26659;-73
2021/12/24 00:18:30;;;;;;;133.50;47.97;;;;;;;;;;4198554;28;22465;-73
2021/12/24 00:37:19;;;;;;;141.90;46.63;;;;;;;;;;4201233;28;21362;-70
2021/12/24 00:40:29;;;;;;;133.53;46.17;;;;;;;;;;4202451;28;20221;-69
2021/12/24 00:42:36;;;;;;;132.47;43.33;;;;;;;;;;4194172;28;20272;-70
2021/12/24 00:45:03;;;;;;;130.63;45.50;;;;;;;;;;4203550;28;20229;-70
2021/12/24 00:47:30;;;;;;;126.67;44.47;;;;;;;;;;4204943;28;20261;-69
2021/12/24 00:49:57;;;;;;;127.73;43.40;;;;;;;;;;4197050;28;20229;-70
2021/12/24 00:52:46;;;;;;;115.03;40.63;;;;;;;;;;4214258;28;20304;-72
2021/12/24 00:55:14;;;;;;;117.87;41.93;;;;;;;;;;4195281;28;22051;-73
2021/12/24 00:57:42;;;;;;;119.50;42.67;;;;;;;;;;4216705;28;21958;-69
2021/12/24 01:00:14;;;;;;;114.03;43.20;;;;;;;;;;4201056;28;20298;-71
2021/12/24 01:02:42;;;;;;;99.47;40.40;;;;;;;;;;4186575;28;21892;-69
2021/12/24 01:05:09;;;;;;;108.43;40.30;;;;;;;;;;4190254;28;20456;-70
2021/12/24 01:07:36;;;;;;;109.40;41.60;;;;;;;;;;4196533;28;20239;-72
2021/12/24 01:10:03;;;;;;;110.37;41.63;;;;;;;;;;4202595;28;20276;-72
2021/12/24 01:12:30;;;;;;;106.80;40.17;;;;;;;;;;4201967;28;20248;-70
2021/12/24 01:14:56;;;;;;;105.73;38.50;;;;;;;;;;4210711;28;20287;-68
2021/12/24 01:17:34;;;;;;;102.73;39.77;;;;;;;;;;4204084;28;20237;-71
2021/12/24 01:20:10;;;;;;;112.50;41.43;;;;;;;;;;4204207;28;20241;-68
2021/12/24 01:25:14;;;;;;;100.67;40.50;;;;;;;;;;4210361;28;20229;-69
2021/12/24 01:28:25;;;;;;;95.53;39.87;;;;;;;;;;4201734;28;20228;-71
2021/12/24 01:44:44;;;;;;;102.07;40.37;;;;;;;;;;4190913;28;22066;-69
2021/12/24 01:47:11;;;;;;;90.20;38.83;;;;;;;;;;4219903;28;21669;-70
2021/12/24 01:49:37;;;;;;;95.73;37.93;;;;;;;;;;4200086;28;22716;-71
2021/12/24 01:52:04;;;;;;;92.37;37.77;;;;;;;;;;4182878;28;20445;-70
2021/12/24 01:54:31;;;;;;;89.33;37.60;;;;;;;;;;4205940;28;20255;-70
2021/12/24 01:56:58;;;;;;;97.07;39.90;;;;;;;;;;4189374;28;22850;-68
2021/12/24 01:59:24;;;;;;;90.67;38.30;;;;;;;;;;4175407;28;21783;-69
2021/12/24 02:01:51;;;;;;;92.20;38.50;;;;;;;;;;4186340;28;20299;-71
2021/12/24 02:04:18;;;;;;;85.67;36.97;;;;;;;;;;4176727;28;20393;-70
2021/12/24 02:06:44;;;;;;;91.70;37.23;;;;;;;;;;4191718;28;20244;-71
2021/12/24 02:09:11;;;;;;;90.30;37.47;;;;;;;;;;4190308;28;21319;-69
2021/12/24 02:11:39;;;;;;;83.87;35.80;;;;;;;;;;4190674;28;20245;-71
2021/12/24 02:14:07;;;;;;;85.13;36.40;;;;;;;;;;4189605;28;20309;-70
2021/12/24 02:30:27;;;;;;;88.70;35.53;;;;;;;;;;4181599;28;20978;-71
2021/12/24 02:32:54;;;;;;;90.30;35.70;;;;;;;;;;4189627;28;20301;-69
2021/12/24 02:35:20;;;;;;;84.37;34.83;;;;;;;;;;4195694;28;21277;-71
2021/12/24 02:37:48;;;;;;;85.27;35.73;;;;;;;;;;4182512;28;20234;-71
2021/12/24 02:40:14;;;;;;;87.93;35.30;;;;;;;;;;4185091;28;20241;-71
2021/12/24 02:42:47;;;;;;;91.20;36.00;;;;;;;;;;4194080;28;21635;-70
2021/12/24 02:45:14;;;;;;;84.47;36.37;;;;;;;;;;4180649;28;20396;-72
2021/12/24 02:47:56;;;;;;;82.03;34.33;;;;;;;;;;4176323;28;20239;-72
2021/12/24 02:55:34;;;;;;;82.10;33.57;;;;;;;;;;4186959;28;20240;-69
2021/12/24 02:58:01;;;;;;;87.60;34.70;;;;;;;;;;4205289;28;22684;-74
2021/12/24 03:00:28;;;;;;;85.57;36.00;;;;;;;;;;4200648;28;20244;-71
2021/12/24 03:02:55;;;;;;;84.57;35.17;;;;;;;;;;4183761;28;20237;-73
2021/12/24 03:05:22;;;;;;;92.90;33.93;;;;;;;;;;4195807;28;20224;-72
2021/12/24 03:07:48;;;;;;;82.60;34.77;;;;;;;;;;4197074;28;20504;-72
2021/12/24 03:10:17;;;;;;;79.33;33.90;;;;;;;;;;4193891;28;20241;-72
2021/12/24 03:12:45;;;;;;;78.07;33.57;;;;;;;;;;4201299;28;20326;-73
2021/12/24 03:15:12;;;;;;;82.13;34.17;;;;;;;;;;4194680;28;20684;-73
2021/12/24 03:17:44;;;;;;;83.70;33.43;;;;;;;;;;4200784;28;20225;-71
2021/12/24 03:20:11;;;;;;;79.83;32.90;;;;;;;;;;4192243;28;20233;-71
2021/12/24 03:25:04;;;;;;;89.63;34.57;;;;;;;;;;4190487;28;20247;-73
2021/12/24 03:27:30;;;;;;;82.17;32.80;;;;;;;;;;4194585;28;20234;-71
2021/12/24 03:29:58;;;;;;;73.90;33.37;;;;;;;;;;4193430;28;20314;-71
2021/12/24 03:32:25;;;;;;;82.20;32.47;;;;;;;;;;4190423;28;20281;-72
2021/12/24 03:34:52;;;;;;;79.47;34.50;;;;;;;;;;4191287;28;20237;-71
2021/12/24 03:37:18;;;;;;;81.80;32.83;;;;;;;;;;4191461;28;20797;-72
2021/12/24 03:39:45;;;;;;;81.00;33.17;;;;;;;;;;4191640;28;20310;-72
2021/12/24 03:42:11;;;;;;;76.97;32.60;;;;;;;;;;4191402;28;20723;-71
2021/12/24 03:44:43;;;;;;;79.57;32.80;;;;;;;;;;4195943;28;20252;-71
2021/12/24 03:47:13;;;;;;;78.77;32.73;;;;;;;;;;4200540;28;20277;-71
2021/12/24 03:55:01;;;;;;;87.03;34.37;;;;;;;;;;4201313;28;20247;-72
2021/12/24 03:57:39;;;;;;;81.47;34.13;;;;;;;;;;4198621;28;20300;-72
2021/12/24 04:00:05;;;;;;;93.27;33.33;;;;;;;;;;4197188;28;20278;-72
2021/12/24 04:02:32;;;;;;;83.67;34.20;;;;;;;;;;4189626;28;20431;-70
2021/12/24 04:04:58;;;;;;;85.80;34.83;;;;;;;;;;4208190;28;20237;-72
2021/12/24 04:07:25;;;;;;;81.30;33.00;;;;;;;;;;4195109;28;20259;-73
2021/12/24 04:10:04;;;;;;;75.70;32.33;;;;;;;;;;4180074;28;20421;-72
2021/12/24 04:12:34;;;;;;;80.50;31.87;;;;;;;;;;4188682;28;22169;-71
2021/12/24 04:15:01;;;;;;;70.93;31.60;;;;;;;;;;4193863;28;20349;-72
2021/12/24 04:17:31;;;;;;;78.80;32.37;;;;;;;;;;4195482;28;20232;-71
2021/12/24 04:25:26;;;;;;;87.30;32.83;;;;;;;;;;4205833;28;20306;-73
2021/12/24 04:27:54;;;;;;;81.20;32.40;;;;;;;;;;4178328;28;20237;-72
2021/12/24 04:30:26;;;;;;;73.50;31.37;;;;;;;;;;4195824;28;20228;-72
2021/12/24 04:33:09;;;;;;;78.83;32.83;;;;;;;;;;4190841;28;20331;-72
2021/12/24 04:35:43;;;;;;;75.60;31.07;;;;;;;;;;4191305;28;20275;-72
2021/12/24 04:51:48;;;;;;;75.47;32.17;;;;;;;;;;4200908;28;23728;-70
2021/12/24 05:05:09;;;;;;;72.30;30.00;;;;;;;;;;4179656;28;20694;-71
2021/12/24 05:10:18;;;;;;;71.40;31.43;;;;;;;;;;4204858;28;23486;-71
2021/12/24 05:12:45;;;;;;;73.33;30.63;;;;;;;;;;4197413;28;20315;-71
2021/12/24 05:15:12;;;;;;;73.33;30.90;;;;;;;;;;4224356;28;22465;-78
2021/12/24 05:23:08;;;;;;;79.20;30.73;;;;;;;;;;4201490;28;20234;-77
2021/12/24 05:25:37;;;;;;;70.73;30.10;;;;;;;;;;4207806;28;20255;-77
2021/12/24 05:28:04;;;;;;;68.07;31.40;;;;;;;;;;4211202;28;20248;-78
2021/12/24 05:30:32;;;;;;;67.27;31.63;;;;;;;;;;4195378;28;21808;-77
2021/12/24 05:32:58;;;;;;;68.67;31.27;;;;;;;;;;4200618;28;20238;-77
2021/12/24 05:35:25;;;;;;;63.00;29.80;;;;;;;;;;4202246;28;20328;-76
2021/12/24 05:37:51;;;;;;;72.33;31.30;;;;;;;;;;4190022;28;20601;-77
2021/12/24 05:40:17;;;;;;;80.90;30.33;;;;;;;;;;4192733;28;20334;-77
2021/12/24 05:42:44;;;;;;;80.53;31.77;;;;;;;;;;4213288;28;21818;-78
2021/12/24 05:45:10;;;;;;;76.47;30.33;;;;;;;;;;4204404;28;22622;-76
2021/12/24 05:47:37;;;;;;;75.47;29.63;;;;;;;;;;4198153;28;20236;-75
2021/12/24 05:50:05;;;;;;;75.60;28.90;;;;;;;;;;4193260;28;20226;-78
2021/12/24 05:52:33;;;;;;;70.90;29.90;;;;;;;;;;4211799;28;20356;-77
2021/12/24 05:55:00;;;;;;;78.27;30.37;;;;;;;;;;4211769;28;20237;-75
2021/12/24 05:57:29;;;;;;;78.90;31.57;;;;;;;;;;4223013;28;20652;-77
2021/12/24 05:59:55;;;;;;;70.23;30.73;;;;;;;;;;4179588;28;20407;-75
2021/12/24 06:02:22;;;;;;;84.63;30.17;;;;;;;;;;4193102;28;20647;-79
2021/12/24 06:04:49;;;;;;;76.50;30.53;;;;;;;;;;4185961;28;20616;-75
2021/12/24 06:07:15;;;;;;;81.10;30.53;;;;;;;;;;4183672;28;22019;-74
2021/12/24 06:09:41;;;;;;;70.00;30.03;;;;;;;;;;4195756;28;21549;-78
2021/12/24 06:12:08;;;;;;;73.67;30.50;;;;;;;;;;4187847;28;20265;-76
2021/12/24 06:14:34;;;;;;;73.13;29.53;;;;;;;;;;4191471;28;20693;-76
2021/12/24 06:17:03;;;;;;;84.33;32.33;;;;;;;;;;4183701;28;20237;-76
2021/12/24 06:19:32;;;;;;;75.07;32.33;;;;;;;;;;4189538;28;20513;-73
2021/12/24 06:21:59;;;;;;;73.90;30.87;;;;;;;;;;4189441;28;20269;-73
2021/12/24 06:24:25;;;;;;;69.90;31.30;;;;;;;;;;4185079;28;20386;-75
2021/12/24 06:26:52;;;;;;;81.70;33.30;;;;;;;;;;4179441;28;20232;-74
2021/12/24 06:29:20;;;;;;;77.90;32.20;;;;;;;;;;4178843;28;20252;-74
2021/12/24 06:31:47;;;;;;;75.37;32.23;;;;;;;;;;4198290;28;21581;-74
2021/12/24 06:34:14;;;;;;;83.30;32.00;;;;;;;;;;4184819;28;20344;-74
2021/12/24 06:36:43;;;;;;;79.33;30.83;;;;;;;;;;4190840;28;20233;-74
2021/12/24 06:39:10;;;;;;;84.47;31.77;;;;;;;;;;4195537;28;20233;-73
2021/12/24 06:41:37;;;;;;;73.37;30.80;;;;;;;;;;4179024;28;21082;-74
2021/12/24 06:44:05;;;;;;;71.20;29.20;;;;;;;;;;4203317;28;20237;-75
2021/12/24 06:46:33;;;;;;;74.37;29.87;;;;;;;;;;4188584;28;20237;-75
2021/12/24 06:48:59;;;;;;;78.13;32.13;;;;;;;;;;4202594;28;20329;-76
2021/12/24 06:51:26;;;;;;;75.17;30.93;;;;;;;;;;4201840;28;20257;-72
2021/12/24 06:53:53;;;;;;;72.17;31.97;;;;;;;;;;4204050;28;20245;-72
2021/12/24 06:56:20;;;;;;;78.97;31.97;;;;;;;;;;4193947;28;20482;-74
2021/12/24 06:58:46;;;;;;;77.13;33.17;;;;;;;;;;4178733;28;20332;-72
2021/12/24 07:01:13;;;;;;;80.13;33.57;;;;;;;;;;4193294;28;21691;-73
2021/12/24 07:03:41;;;;;;;77.63;31.57;;;;;;;;;;4195163;28;20239;-73
2021/12/24 07:06:08;;;;;;;72.67;32.20;;;;;;;;;;4199563;28;20265;-75
2021/12/24 07:08:35;;;;;;;77.70;30.73;;;;;;;;;;4198553;28;20375;-73
2021/12/24 07:11:01;;;;;;;69.80;29.97;;;;;;;;;;4195407;28;22599;-73
2021/12/24 07:13:28;;;;;;;71.73;30.30;;;;;;;;;;4222187;28;20270;-72
2021/12/24 07:15:54;;;;;;;64.73;31.20;;;;;;;;;;4207212;28;22952;-70
2021/12/24 07:18:21;;;;;;;75.00;32.37;;;;;;;;;;4212211;28;20292;-75
2021/12/24 07:20:47;;;;;;;79.03;33.20;;;;;;;;;;4205153;28;20300;-77
2021/12/24 07:23:14;;;;;;;75.30;32.47;;;;;;;;;;4220476;28;20233;-78
2021/12/24 07:25:40;;;;;;;78.23;32.97;;;;;;;;;;4199211;28;20493;-77
2021/12/24 07:28:10;;;;;;;76.30;32.03;;;;;;;;;;4221125;28;20256;-79
2021/12/24 07:30:36;;;;;;;71.00;30.73;;;;;;;;;;4203647;28;26456;-76
2021/12/24 07:33:03;;;;;;;72.27;30.93;;;;;;;;;;4210903;28;22933;-77
2021/12/24 07:35:29;;;;;;;65.47;29.40;;;;;;;;;;4185477;28;22005;-74
2021/12/24 07:37:56;;;;;;;71.67;30.67;;;;;;;;;;4180997;28;20234;-77
2021/12/24 07:40:25;;;;;;;71.30;30.70;;;;;;;;;;4196133;28;20662;-76
2021/12/24 07:42:52;;;;;;;70.50;30.13;;;;;;;;;;4198841;28;20332;-75
2021/12/24 07:45:18;;;;;;;64.17;30.23;;;;;;;;;;4200523;28;20248;-77
2021/12/24 07:47:55;;;;;;;68.13;30.43;;;;;;;;;;4207601;28;20236;-73
2021/12/24 07:52:55;;;;;;;63.83;28.23;;;;;;;;;;4196162;28;20260;-78
2021/12/24 07:55:22;;;;;;;68.80;30.10;;;;;;;;;;4195811;28;20325;-76
2021/12/24 07:57:51;;;;;;;63.13;29.77;;;;;;;;;;4180390;28;20237;-72
2021/12/24 08:00:19;;;;;;;67.27;29.60;;;;;;;;;;4193139;28;20382;-77
2021/12/24 08:02:46;;;;;;;66.87;29.63;;;;;;;;;;4202707;28;20256;-65
2021/12/24 08:05:14;;;;;;;64.23;28.20;;;;;;;;;;4191473;28;20361;-73
2021/12/24 08:07:40;;;;;;;60.43;28.33;;;;;;;;;;4183117;28;20233;-74
2021/12/24 08:10:07;;;;;;;61.77;28.40;;;;;;;;;;4172180;28;20237;-79
2021/12/24 08:12:33;;;;;;;62.77;29.00;;;;;;;;;;4188110;28;20235;-78
2021/12/24 08:15:00;;;;;;;65.30;29.17;;;;;;;;;;4186304;28;20240;-73
2021/12/24 08:17:26;;;;;;;62.57;29.60;;;;;;;;;;4191649;28;20242;-76
2021/12/24 08:19:53;;;;;;;67.03;29.63;;;;;;;;;;4190786;28;22717;-74
2021/12/24 08:22:19;;;;;;;68.63;29.80;;;;;;;;;;4197674;28;20470;-76
2021/12/24 08:24:46;;;;;;;67.97;30.23;;;;;;;;;;4181218;28;20242;-76
2021/12/24 08:27:12;;;;;;;66.40;29.57;;;;;;;;;;4188883;28;20561;-74
2021/12/24 08:29:38;;;;;;;70.43;30.20;;;;;;;;;;4179483;28;20692;-76
2021/12/24 08:32:05;;;;;;;67.33;30.00;;;;;;;;;;4187034;28;20237;-74
2021/12/24 08:34:33;;;;;;;70.00;30.27;;;;;;;;;;4169975;28;20347;-73
2021/12/24 08:36:59;;;;;;;65.60;29.27;;;;;;;;;;4184120;28;20255;-72
2021/12/24 08:39:26;;;;;;;68.23;30.40;;;;;;;;;;4192897;28;20332;-73
2021/12/24 08:41:54;;;;;;;66.73;31.43;;;;;;;;;;4190628;28;20251;-76
2021/12/24 08:44:22;;;;;;;69.10;29.57;;;;;;;;;;4204544;28;20308;-75
2021/12/24 08:46:48;;;;;;;64.30;30.27;;;;;;;;;;4186090;28;20300;-76
2021/12/24 08:49:15;;;;;;;67.30;30.60;;;;;;;;;;4186916;28;20353;-75
2021/12/24 08:51:41;;;;;;;65.80;29.60;;;;;;;;;;4187759;28;20320;-72
2021/12/24 08:54:08;;;;;;;63.37;29.70;;;;;;;;;;4178866;28;20521;-74
2021/12/24 08:56:35;;;;;;;68.77;30.97;;;;;;;;;;4171932;28;20235;-73
2021/12/24 08:59:01;;;;;;;67.23;30.03;;;;;;;;;;4167056;28;20238;-73
2021/12/24 09:01:28;;;;;;;69.20;29.70;;;;;;;;;;4176558;28;20242;-72
2021/12/24 09:03:54;;;;;;;67.00;30.80;;;;;;;;;;4170912;28;20237;-73
2021/12/24 09:06:22;;;;;;;66.60;30.33;;;;;;;;;;4177678;28;20243;-75
2021/12/24 09:08:49;;;;;;;68.73;30.23;;;;;;;;;;4173747;28;22977;-75
2021/12/24 09:11:15;;;;;;;61.73;28.57;;;;;;;;;;4182652;28;21299;-74
2021/12/24 09:13:43;;;;;;;62.63;29.00;;;;;;;;;;4173575;28;20840;-72
2021/12/24 09:16:09;;;;;;;65.03;29.70;;;;;;;;;;4176986;28;22475;-71
2021/12/24 09:18:38;;;;;;;67.90;28.73;;;;;;;;;;4166810;28;20240;-66
2021/12/24 09:21:13;;;;;;;58.20;28.30;;;;;;;;;;4174373;28;20824;-72
2021/12/24 09:23:42;;;;;;;63.00;29.00;;;;;;;;;;4161048;28;20455;-72
2021/12/24 09:26:29;;;;;;;64.63;28.83;;;;;;;;;;4178858;28;20265;-70
2021/12/24 09:28:56;;;;;;;60.90;29.40;;;;;;;;;;4175758;28;21817;-72
2021/12/24 09:31:23;;;;;;;61.90;29.13;;;;;;;;;;4172421;28;20257;-72
2021/12/24 09:33:50;;;;;;;58.40;29.13;;;;;;;;;;4174191;28;20234;-71
2021/12/24 09:36:25;;;;;;;65.10;29.37;;;;;;;;;;4174164;28;20423;-71
2021/12/24 09:38:52;;;;;;;64.17;29.57;;;;;;;;;;4184781;28;23202;-71
2021/12/24 09:41:20;;;;;;;65.73;29.63;;;;;;;;;;4173551;28;20239;-71
2021/12/24 09:43:47;;;;;;;69.63;31.00;;;;;;;;;;4174077;28;25803;-71
2021/12/24 09:46:13;;;;;;;67.47;30.10;;;;;;;;;;4173529;28;20364;-70
2021/12/24 09:48:40;;;;;;;65.80;30.40;;;;;;;;;;4174047;28;20304;-71
2021/12/24 09:51:07;;;;;;;67.20;31.13;;;;;;;;;;4180513;28;20234;-72
2021/12/24 09:53:36;;;;;;;74.63;32.83;;;;;;;;;;4190152;28;23837;-70
2021/12/24 09:56:04;;;;;;;68.20;31.07;;;;;;;;;;4180724;28;20247;-70
2021/12/24 09:58:31;;;;;;;62.00;28.87;;;;;;;;;;4179907;28;20358;-72
2021/12/24 10:00:57;;;;;;;62.27;29.80;;;;;;;;;;4180424;28;20242;-70
2021/12/24 10:03:32;;;;;;;66.73;30.10;;;;;;;;;;4213998;28;21692;-71
2021/12/24 10:05:59;;;;;;;67.07;30.43;;;;;;;;;;4183584;28;21058;-67
2021/12/24 10:08:28;;;;;;;67.17;31.00;;;;;;;;;;4191432;28;21890;-74
2021/12/24 10:11:09;;;;;;;61.13;28.87;;;;;;;;;;4179805;28;20237;-68
2021/12/24 10:13:39;;;;;;;62.33;29.37;;;;;;;;;;4205064;28;20253;-70
2021/12/24 10:16:07;;;;;;;63.90;28.33;;;;;;;;;;4194690;28;20713;-72
2021/12/24 10:18:41;;;;;;;62.70;29.83;;;;;;;;;;4199755;28;22183;-70
2021/12/24 10:21:08;;;;;;;63.83;28.80;;;;;;;;;;4181865;28;21759;-71
2021/12/24 10:23:57;;;;;;;66.73;30.80;;;;;;;;;;4178031;28;21089;-71
2021/12/24 10:26:24;;;;;;;99.80;39.07;;;;;;;;;;4171270;28;21650;-71
2021/12/24 10:28:51;;;;;;;59.70;29.03;;;;;;;;;;4189477;28;21519;-70
2021/12/24 10:31:19;;;;;;;65.90;30.87;;;;;;;;;;4178747;28;20221;-69
2021/12/24 10:34:04;;;;;;;66.63;30.40;;;;;;;;;;4212049;28;22873;-72
2021/12/24 10:36:31;;;;;;;67.00;30.73;;;;;;;;;;4183897;28;20348;-69
2021/12/24 10:38:57;;;;;;;66.47;30.20;;;;;;;;;;4190635;28;20242;-70
2021/12/24 10:41:27;;;;;;;67.20;30.83;;;;;;;;;;4171273;28;20240;-71
2021/12/24 10:43:53;;;;;;;65.23;30.00;;;;;;;;;;4177381;28;20250;-69
2021/12/24 10:46:24;;;;;;;68.47;31.13;;;;;;;;;;4188721;28;21410;-71
2021/12/24 10:49:01;;;;;;;67.43;30.40;;;;;;;;;;4188913;28;20403;-68
2021/12/24 10:54:13;;;;;;;72.93;30.90;;;;;;;;;;4194822;28;20456;-71
2021/12/24 10:56:40;;;;;;;68.03;31.53;;;;;;;;;;4177573;28;20254;-70
2021/12/24 10:59:07;;;;;;;73.83;31.20;;;;;;;;;;4166559;28;20232;-71
2021/12/24 11:01:34;;;;;;;65.43;28.03;;;;;;;;;;4181749;28;20230;-68
2021/12/24 11:04:00;;;;;;;74.97;32.67;;;;;;;;;;4183081;28;20308;-71
2021/12/24 11:06:30;;;;;;;71.83;32.57;;;;;;;;;;4176427;28;20233;-71
2021/12/24 11:08:59;;;;;;;70.37;31.00;;;;;;;;;;4179821;28;20237;-71
2021/12/24 11:11:35;;;;;;;74.07;29.90;;;;;;;;;;4195867;28;20545;-72
2021/12/24 11:14:02;;;;;;;72.67;30.47;;;;;;;;;;4181599;28;21144;-71
2021/12/24 11:16:30;;;;;;;69.43;30.63;;;;;;;;;;4186074;28;20242;-74
2021/12/24 11:19:01;;;;;;;72.77;30.37;;;;;;;;;;4176649;28;20233;-71
2021/12/24 11:21:29;;;;;;;69.90;30.80;;;;;;;;;;4211622;28;20307;-70
2021/12/24 11:23:56;;;;;;;76.73;32.67;;;;;;;;;;4178957;28;20379;-71
2021/12/24 11:26:27;;;;;;;72.03;31.10;;;;;;;;;;4180079;28;20239;-71
2021/12/24 11:28:54;;;;;;;72.90;30.33;;;;;;;;;;4183346;28;20297;-71
2021/12/24 11:31:22;;;;;;;82.53;33.20;;;;;;;;;;4176885;28;21579;-70
2021/12/24 11:33:51;;;;;;;75.33;31.77;;;;;;;;;;4170482;28;20351;-73
2021/12/24 11:36:21;;;;;;;80.33;33.17;;;;;;;;;;4178655;28;20243;-73
2021/12/24 11:38:49;;;;;;;77.03;31.43;;;;;;;;;;4173366;28;20300;-72
2021/12/24 11:41:17;;;;;;;79.77;32.00;;;;;;;;;;4181467;28;21567;-72
2021/12/24 11:43:46;;;;;;;83.17;34.27;;;;;;;;;;4179414;28;20695;-71
2021/12/24 11:46:15;;;;;;;87.17;36.10;;;;;;;;;;4179379;28;20256;-71
2021/12/24 11:48:47;;;;;;;89.23;37.03;;;;;;;;;;4180882;28;21170;-74
2021/12/24 11:51:14;;;;;;;79.00;33.17;;;;;;;;;;4181704;28;20256;-69
2021/12/24 11:53:40;;;;;;;76.10;32.67;;;;;;;;;;4179430;28;21631;-73
2021/12/24 11:56:10;;;;;;;80.57;33.00;;;;;;;;;;4192092;28;20411;-71
2021/12/24 11:58:43;;;;;;;78.73;32.23;;;;;;;;;;4186817;28;20814;-70
2021/12/24 12:01:10;;;;;;;73.43;32.10;;;;;;;;;;4193251;28;20406;-69
2021/12/24 12:03:38;;;;;;;69.00;29.87;;;;;;;;;;4192707;28;20239;-70
2021/12/24 12:06:06;;;;;;;71.47;31.13;;;;;;;;;;4191904;28;20233;-75
2021/12/24 12:08:37;;;;;;;79.23;33.47;;;;;;;;;;4186243;28;20250;-71
2021/12/24 12:11:15;;;;;;;71.80;30.37;;;;;;;;;;4198845;28;23235;-71
2021/12/24 12:13:49;;;;;;;74.47;30.00;;;;;;;;;;4186374;28;22180;-70
2021/12/24 12:16:17;;;;;;;71.03;29.17;;;;;;;;;;4194405;28;20311;-71
2021/12/24 12:19:03;;;;;;;68.80;28.87;;;;;;;;;;4195327;28;20312;-70
2021/12/24 12:21:41;;;;;;;59.93;25.83;;;;;;;;;;4192109;28;23630;-69
2021/12/24 12:26:42;;;;;;;64.17;26.83;;;;;;;;;;4195310;28;20317;-71
2021/12/24 12:29:17;;;;;;;56.87;25.17;;;;;;;;;;4193363;28;20237;-70
2021/12/24 12:31:44;;;;;;;56.87;23.97;;;;;;;;;;4200105;28;21040;-69
2021/12/24 12:34:29;;;;;;;60.50;25.03;;;;;;;;;;4194752;28;20239;-71
2021/12/24 12:37:10;;;;;;;50.20;23.13;;;;;;;;;;4191715;28;20232;-70
2021/12/24 12:39:36;;;;;;;65.33;26.70;;;;;;;;;;4204169;28;20276;-70
2021/12/24 12:42:03;;;;;;;59.27;25.57;;;;;;;;;;4180492;28;22289;-72
2021/12/24 12:44:32;;;;;;;56.43;25.90;;;;;;;;;;4204694;28;20350;-68
2021/12/24 12:47:12;;;;;;;60.60;25.30;;;;;;;;;;4203636;28;20700;-71
2021/12/24 12:49:38;;;;;;;52.00;23.70;;;;;;;;;;4190984;28;20300;-74
2021/12/24 12:52:07;;;;;;;48.47;23.63;;;;;;;;;;4196423;28;20235;-72
2021/12/24 12:54:33;;;;;;;56.73;25.77;;;;;;;;;;4194243;28;20292;-70
2021/12/24 12:57:12;;;;;;;58.17;25.13;;;;;;;;;;4190215;28;20233;-69
2021/12/24 13:00:02;;;;;;;57.83;25.53;;;;;;;;;;4190530;28;20271;-68
2021/12/24 13:03:07;;;;;;;54.60;25.33;;;;;;;;;;4194735;28;20235;-68
2021/12/24 13:05:36;;;;;;;54.80;25.30;;;;;;;;;;4163433;29;20285;-70
2021/12/24 13:08:11;;;;;;;54.70;26.50;;;;;;;;;;4187502;28;20926;-68
2021/12/24 13:10:37;;;;;;;58.70;27.27;;;;;;;;;;4182432;28;21261;-69
2021/12/24 13:13:05;;;;;;;62.17;27.30;;;;;;;;;;4188001;28;20355;-69
2021/12/24 13:15:43;;;;;;;61.83;26.77;;;;;;;;;;4195786;28;20240;-69
2021/12/24 13:18:28;;;;;;;59.73;27.67;;;;;;;;;;4218274;28;20244;-68
2021/12/24 13:22:27;;;;;;;61.53;27.27;;;;;;;;;;4201189;28;20262;-68
2021/12/24 13:23:43;;;;;;;57.37;25.87;;;;;;;;;;4200516;28;20235;-68
2021/12/24 13:26:10;;;;;;;56.43;25.83;;;;;;;;;;4198112;28;20312;-68
2021/12/24 13:29:00;;;;;;;59.20;26.70;;;;;;;;;;4193087;28;21243;-67
2021/12/24 13:31:28;;;;;;;60.23;27.63;;;;;;;;;;4208740;28;20271;-71
2021/12/24 13:33:55;;;;;;;58.77;27.37;;;;;;;;;;4195422;28;20232;-69
2021/12/24 13:36:22;;;;;;;68.37;28.23;;;;;;;;;;4201474;28;20300;-69
2021/12/24 13:38:48;;;;;;;69.50;29.37;;;;;;;;;;4193908;28;21602;-69
2021/12/24 13:41:15;;;;;;;72.73;30.30;;;;;;;;;;4192278;28;20272;-69
2021/12/24 13:43:42;;;;;;;71.73;29.77;;;;;;;;;;4193891;28;20237;-69
2021/12/24 13:46:09;;;;;;;79.77;32.47;;;;;;;;;;4198958;28;20229;-69
2021/12/24 13:56:40;;;;;;;72.03;28.70;;;;;;;;;;4219447;28;22829;-70
2021/12/24 13:59:08;;;;;;;66.53;29.20;;;;;;;;;;4219280;28;20302;-69
2021/12/24 14:01:35;;;;;;;60.87;27.13;;;;;;;;;;4217478;28;22198;-69
2021/12/24 14:04:04;;;;;;;66.83;27.77;;;;;;;;;;4207688;28;23457;-71
2021/12/24 14:06:38;;;;;;;69.50;29.53;;;;;;;;;;4204263;28;20280;-69
2021/12/24 14:09:11;;;;;;;76.70;28.17;;;;;;;;;;4216371;28;23602;-70
2021/12/24 14:11:39;;;;;;;69.93;28.93;;;;;;;;;;4206821;28;20253;-70
2021/12/24 14:14:12;;;;;;;70.00;29.00;;;;;;;;;;4232307;28;20298;-69
2021/12/24 14:16:56;;;;;;;61.37;28.13;;;;;;;;;;4205272;28;22306;-69
2021/12/24 14:19:37;;;;;;;67.90;29.50;;;;;;;;;;4208602;28;22362;-70
2021/12/24 14:22:07;;;;;;;73.97;29.13;;;;;;;;;;4206581;28;20245;-68
2021/12/24 14:24:36;;;;;;;72.90;29.77;;;;;;;;;;4205684;28;20268;-70
2021/12/24 14:27:05;;;;;;;63.20;27.17;;;;;;;;;;4204497;28;20251;-68
2021/12/24 14:29:37;;;;;;;73.40;28.90;;;;;;;;;;4212517;28;20345;-69
2021/12/24 14:32:06;;;;;;;75.00;28.60;;;;;;;;;;4224812;28;20332;-72
2021/12/24 14:34:38;;;;;;;71.13;29.07;;;;;;;;;;4228066;28;20330;-69
2021/12/24 14:37:15;;;;;;;70.30;29.20;;;;;;;;;;4219963;28;20237;-64
2021/12/24 14:39:44;;;;;;;72.33;30.10;;;;;;;;;;4206664;28;21127;-71
2021/12/24 14:42:13;;;;;;;69.83;29.70;;;;;;;;;;4208883;28;20279;-69
2021/12/24 14:44:40;;;;;;;72.50;29.97;;;;;;;;;;4219573;28;20973;-68
2021/12/24 14:47:08;;;;;;;84.13;30.17;;;;;;;;;;4218690;28;20231;-72
2021/12/24 14:49:35;;;;;;;73.27;29.70;;;;;;;;;;4212592;28;20292;-71
2021/12/24 14:52:15;;;;;;;72.17;28.73;;;;;;;;;;4215729;28;22156;-71
2021/12/24 14:55:01;;;;;;;75.80;29.87;;;;;;;;;;4204953;28;20312;-69
2021/12/24 14:57:27;;;;;;;76.10;29.70;;;;;;;;;;4240029;28;20409;-70
2021/12/24 14:59:54;;;;;;;74.23;28.57;;;;;;;;;;4205384;28;21626;-69
2021/12/24 15:02:20;;;;;;;69.83;27.30;;;;;;;;;;4216209;28;21949;-67
2021/12/24 15:04:56;;;;;;;80.67;27.90;;;;;;;;;;4201628;28;20403;-69
2021/12/24 15:07:31;;;;;;;76.27;27.87;;;;;;;;;;4213170;28;23090;-71
2021/12/24 15:10:11;;;;;;;73.83;27.33;;;;;;;;;;4213732;28;20584;-70
2021/12/24 15:12:47;;;;;;;63.47;25.50;;;;;;;;;;4207429;28;20237;-69
2021/12/24 15:15:15;;;;;;;61.60;25.63;;;;;;;;;;4195426;28;22907;-73
2021/12/24 15:17:43;;;;;;;74.77;28.37;;;;;;;;;;4202356;28;20238;-71
2021/12/24 15:20:10;;;;;;;76.37;29.00;;;;;;;;;;4220763;28;20240;-74
2021/12/24 15:22:36;;;;;;;63.57;26.10;;;;;;;;;;4240303;28;20228;-75
2021/12/24 15:25:04;;;;;;;62.53;24.87;;;;;;;;;;4209829;28;22545;-74
2021/12/24 15:27:32;;;;;;;57.37;23.73;;;;;;;;;;4206184;28;22241;-77
2021/12/24 15:29:59;;;;;;;65.30;25.20;;;;;;;;;;4224599;28;20301;-70
2021/12/24 15:32:26;;;;;;;58.00;23.60;;;;;;;;;;4213848;28;20777;-67
2021/12/24 15:34:53;;;;;;;64.17;24.73;;;;;;;;;;4203186;28;20236;-70
2021/12/24 15:37:20;;;;;;;59.30;23.93;;;;;;;;;;4230926;28;20267;-69
2021/12/24 15:39:46;;;;;;;68.37;27.17;;;;;;;;;;4214613;28;20246;-69
2021/12/24 15:42:15;;;;;;;65.03;23.77;;;;;;;;;;4203197;28;20317;-69
2021/12/24 15:44:46;;;;;;;55.83;22.37;;;;;;;;;;4204685;28;20235;-69
2021/12/24 15:47:13;;;;;;;66.87;25.27;;;;;;;;;;4202750;28;21253;-70
2021/12/24 15:49:40;;;;;;;57.00;21.73;;;;;;;;;;4180938;28;20288;-70
2021/12/24 15:52:07;;;;;;;56.73;23.07;;;;;;;;;;4210879;28;20329;-70
2021/12/24 15:54:34;;;;;;;54.70;23.27;;;;;;;;;;4210144;28;20253;-69
2021/12/24 15:57:01;;;;;;;55.30;23.53;;;;;;;;;;4203955;28;20311;-70
2021/12/24 15:59:31;;;;;;;55.27;22.90;;;;;;;;;;4199970;28;23160;-73
2021/12/24 16:01:59;;;;;;;61.33;24.90;;;;;;;;;;4206683;28;20238;-72
2021/12/24 16:04:26;;;;;;;59.87;23.97;;;;;;;;;;4200158;28;23529;-70
2021/12/24 16:06:52;;;;;;;54.53;22.60;;;;;;;;;;4200458;28;20241;-69
2021/12/24 16:09:20;;;;;;;52.10;22.03;;;;;;;;;;4203970;28;20259;-69
2021/12/24 16:11:47;;;;;;;56.53;22.70;;;;;;;;;;4199817;28;22189;-70
2021/12/24 16:14:14;;;;;;;59.87;23.37;;;;;;;;;;4216300;28;20237;-71
2021/12/24 16:16:44;;;;;;;52.63;22.53;;;;;;;;;;4202505;28;20238;-69
2021/12/24 16:19:11;;;;;;;55.93;22.63;;;;;;;;;;4198371;28;20355;-69
2021/12/24 16:21:38;;;;;;;57.40;23.47;;;;;;;;;;4216324;28;20559;-70